sensor_id;sensor_type;location;lat;lon;timestamp;P1;durP1;ratioP1;P2;durP2;ratioP2
54923;SDS011;40825;52.270;20.984;2023-07-08T00:01:13;7.10;;;2.70;;
54923;SDS011;40825;52.270;20.984;2023-07-08T00:03:44;8.90;;;3.10;;
54923;SDS011;40825;52.270;20.984;2023-07-08T00:06:18;10.00;;;3.10;;
54923;SDS011;40825;52.270;20.984;2023-07-08T00:08:45;7.20;;;2.80;;
54923;SDS011;40825;52.270;20.984;2023-07-08T00:11:12;9.20;;;3.40;;
54923;SDS011;40825;52.270;20.984;2023-07-08T00:13:39;7.20;;;3.60;;
54923;SDS011;40825;52.270;20.984;2023-07-08T00:16:08;9.30;;;4.50;;
54923;SDS011;40825;52.270;20.984;2023-07-08T00:18:36;7.60;;;3.50;;
54923;SDS011;40825;52.270;20.984;2023-07-08T00:21:02;7.10;;;2.90;;
54923;SDS011;40825;52.270;20.984;2023-07-08T00:23:31;6.50;;;3.10;;
54923;SDS011;40825;52.270;20.984;2023-07-08T00:26:00;7.80;;;3.40;;
54923;SDS011;40825;52.270;20.984;2023-07-08T00:28:30;10.60;;;4.90;;
54923;SDS011;40825;52.270;20.984;2023-07-08T00:30:55;15.50;;;6.10;;
54923;SDS011;40825;52.270;20.984;2023-07-08T00:33:22;8.50;;;3.80;;
54923;SDS011;40825;52.270;20.984;2023-07-08T00:35:48;7.00;;;3.90;;
54923;SDS011;40825;52.270;20.984;2023-07-08T00:38:24;8.80;;;3.60;;
54923;SDS011;40825;52.270;20.984;2023-07-08T00:43:18;11.10;;;4.20;;
54923;SDS011;40825;52.270;20.984;2023-07-08T00:45:49;9.30;;;3.90;;
54923;SDS011;40825;52.270;20.984;2023-07-08T00:48:24;8.10;;;3.60;;
54923;SDS011;40825;52.270;20.984;2023-07-08T00:50:54;10.00;;;4.80;;
54923;SDS011;40825;52.270;20.984;2023-07-08T00:56:02;10.00;;;4.20;;
54923;SDS011;40825;52.270;20.984;2023-07-08T00:58:34;9.70;;;4.30;;
54923;SDS011;40825;52.270;20.984;2023-07-08T01:01:06;9.80;;;3.90;;
54923;SDS011;40825;52.270;20.984;2023-07-08T01:03:34;7.80;;;3.90;;
54923;SDS011;40825;52.270;20.984;2023-07-08T01:06:05;8.20;;;3.60;;
54923;SDS011;40825;52.270;20.984;2023-07-08T01:08:32;9.30;;;3.40;;
54923;SDS011;40825;52.270;20.984;2023-07-08T01:11:01;9.60;;;4.20;;
54923;SDS011;40825;52.270;20.984;2023-07-08T01:13:30;8.70;;;4.00;;
54923;SDS011;40825;52.270;20.984;2023-07-08T01:16:02;9.00;;;4.00;;
54923;SDS011;40825;52.270;20.984;2023-07-08T01:18:29;10.50;;;4.00;;
54923;SDS011;40825;52.270;20.984;2023-07-08T01:20:55;9.30;;;3.70;;
54923;SDS011;40825;52.270;20.984;2023-07-08T01:23:22;9.90;;;3.80;;
54923;SDS011;40825;52.270;20.984;2023-07-08T01:25:49;10.40;;;3.80;;
54923;SDS011;40825;52.270;20.984;2023-07-08T01:28:15;10.10;;;4.00;;
54923;SDS011;40825;52.270;20.984;2023-07-08T01:30:43;7.50;;;4.00;;
54923;SDS011;40825;52.270;20.984;2023-07-08T01:33:12;8.80;;;3.60;;
54923;SDS011;40825;52.270;20.984;2023-07-08T01:35:44;8.70;;;3.90;;
54923;SDS011;40825;52.270;20.984;2023-07-08T01:38:14;8.30;;;4.00;;
54923;SDS011;40825;52.270;20.984;2023-07-08T01:40:54;7.20;;;3.80;;
54923;SDS011;40825;52.270;20.984;2023-07-08T01:43:21;8.00;;;4.10;;
54923;SDS011;40825;52.270;20.984;2023-07-08T01:45:47;8.70;;;4.30;;
54923;SDS011;40825;52.270;20.984;2023-07-08T01:48:15;8.40;;;3.90;;
54923;SDS011;40825;52.270;20.984;2023-07-08T01:50:57;8.00;;;3.60;;
54923;SDS011;40825;52.270;20.984;2023-07-08T01:53:31;8.80;;;3.90;;
54923;SDS011;40825;52.270;20.984;2023-07-08T01:56:01;8.80;;;3.60;;
54923;SDS011;40825;52.270;20.984;2023-07-08T01:58:27;10.30;;;3.90;;
54923;SDS011;40825;52.270;20.984;2023-07-08T02:01:01;9.70;;;4.00;;
54923;SDS011;40825;52.270;20.984;2023-07-08T02:03:28;13.70;;;4.50;;
54923;SDS011;40825;52.270;20.984;2023-07-08T02:05:54;9.50;;;4.90;;
54923;SDS011;40825;52.270;20.984;2023-07-08T02:08:20;9.10;;;4.80;;
54923;SDS011;40825;52.270;20.984;2023-07-08T02:10:49;8.60;;;3.90;;
54923;SDS011;40825;52.270;20.984;2023-07-08T02:13:17;9.00;;;4.50;;
54923;SDS011;40825;52.270;20.984;2023-07-08T02:15:43;12.80;;;4.50;;
54923;SDS011;40825;52.270;20.984;2023-07-08T02:18:08;11.90;;;4.80;;
54923;SDS011;40825;52.270;20.984;2023-07-08T02:20:34;10.10;;;4.50;;
54923;SDS011;40825;52.270;20.984;2023-07-08T02:23:00;12.70;;;5.00;;
54923;SDS011;40825;52.270;20.984;2023-07-08T02:25:33;11.20;;;4.50;;
54923;SDS011;40825;52.270;20.984;2023-07-08T02:27:59;11.40;;;4.80;;
54923;SDS011;40825;52.270;20.984;2023-07-08T02:30:24;10.90;;;5.00;;
54923;SDS011;40825;52.270;20.984;2023-07-08T02:32:50;10.60;;;5.90;;
54923;SDS011;40825;52.270;20.984;2023-07-08T02:35:25;9.60;;;4.90;;
54923;SDS011;40825;52.270;20.984;2023-07-08T02:37:53;10.60;;;4.60;;
54923;SDS011;40825;52.270;20.984;2023-07-08T02:40:20;8.30;;;4.50;;
54923;SDS011;40825;52.270;20.984;2023-07-08T02:42:47;10.50;;;5.50;;
54923;SDS011;40825;52.270;20.984;2023-07-08T02:45:13;8.00;;;4.20;;
54923;SDS011;40825;52.270;20.984;2023-07-08T02:47:39;13.70;;;6.30;;
54923;SDS011;40825;52.270;20.984;2023-07-08T02:50:06;9.70;;;5.30;;
54923;SDS011;40825;52.270;20.984;2023-07-08T02:52:34;10.90;;;4.90;;
54923;SDS011;40825;52.270;20.984;2023-07-08T02:54:59;9.70;;;4.50;;
54923;SDS011;40825;52.270;20.984;2023-07-08T02:57:25;10.80;;;5.50;;
54923;SDS011;40825;52.270;20.984;2023-07-08T02:59:50;14.80;;;6.20;;
54923;SDS011;40825;52.270;20.984;2023-07-08T03:02:16;9.40;;;5.40;;
54923;SDS011;40825;52.270;20.984;2023-07-08T03:04:42;11.40;;;5.20;;
54923;SDS011;40825;52.270;20.984;2023-07-08T03:07:08;9.30;;;4.70;;
54923;SDS011;40825;52.270;20.984;2023-07-08T03:09:43;11.60;;;5.20;;
54923;SDS011;40825;52.270;20.984;2023-07-08T03:12:10;10.70;;;5.10;;
54923;SDS011;40825;52.270;20.984;2023-07-08T03:14:36;11.20;;;5.90;;
54923;SDS011;40825;52.270;20.984;2023-07-08T03:17:03;9.30;;;4.50;;
54923;SDS011;40825;52.270;20.984;2023-07-08T03:19:30;9.60;;;4.80;;
54923;SDS011;40825;52.270;20.984;2023-07-08T03:21:56;10.90;;;4.80;;
54923;SDS011;40825;52.270;20.984;2023-07-08T03:24:21;12.30;;;5.60;;
54923;SDS011;40825;52.270;20.984;2023-07-08T03:26:47;10.90;;;5.10;;
54923;SDS011;40825;52.270;20.984;2023-07-08T03:29:13;11.80;;;5.00;;
54923;SDS011;40825;52.270;20.984;2023-07-08T03:31:41;9.40;;;4.70;;
54923;SDS011;40825;52.270;20.984;2023-07-08T03:34:09;10.20;;;5.00;;
54923;SDS011;40825;52.270;20.984;2023-07-08T03:36:42;10.90;;;5.20;;
54923;SDS011;40825;52.270;20.984;2023-07-08T03:39:19;8.50;;;4.50;;
54923;SDS011;40825;52.270;20.984;2023-07-08T03:41:55;10.60;;;4.90;;
54923;SDS011;40825;52.270;20.984;2023-07-08T03:44:20;11.30;;;4.90;;
54923;SDS011;40825;52.270;20.984;2023-07-08T03:46:46;9.80;;;4.90;;
54923;SDS011;40825;52.270;20.984;2023-07-08T03:49:15;10.50;;;5.40;;
54923;SDS011;40825;52.270;20.984;2023-07-08T03:51:42;10.20;;;5.40;;
54923;SDS011;40825;52.270;20.984;2023-07-08T03:54:09;9.20;;;4.90;;
54923;SDS011;40825;52.270;20.984;2023-07-08T03:56:37;12.60;;;5.70;;
54923;SDS011;40825;52.270;20.984;2023-07-08T03:59:04;11.90;;;5.80;;
54923;SDS011;40825;52.270;20.984;2023-07-08T04:01:29;9.80;;;6.00;;
54923;SDS011;40825;52.270;20.984;2023-07-08T04:03:56;11.70;;;5.50;;
54923;SDS011;40825;52.270;20.984;2023-07-08T04:06:23;9.60;;;5.60;;
54923;SDS011;40825;52.270;20.984;2023-07-08T04:08:50;10.50;;;6.10;;
54923;SDS011;40825;52.270;20.984;2023-07-08T04:11:18;10.80;;;5.80;;
54923;SDS011;40825;52.270;20.984;2023-07-08T04:13:46;11.40;;;5.90;;
54923;SDS011;40825;52.270;20.984;2023-07-08T04:16:17;10.80;;;5.80;;
54923;SDS011;40825;52.270;20.984;2023-07-08T04:18:47;12.20;;;6.00;;
54923;SDS011;40825;52.270;20.984;2023-07-08T04:21:16;11.30;;;5.30;;
54923;SDS011;40825;52.270;20.984;2023-07-08T04:23:42;12.80;;;6.10;;
54923;SDS011;40825;52.270;20.984;2023-07-08T04:26:08;13.80;;;6.30;;
54923;SDS011;40825;52.270;20.984;2023-07-08T04:28:35;12.30;;;6.30;;
54923;SDS011;40825;52.270;20.984;2023-07-08T04:31:01;12.90;;;6.60;;
54923;SDS011;40825;52.270;20.984;2023-07-08T04:33:29;13.10;;;5.80;;
54923;SDS011;40825;52.270;20.984;2023-07-08T04:35:56;14.10;;;6.90;;
54923;SDS011;40825;52.270;20.984;2023-07-08T04:38:22;11.60;;;5.80;;
54923;SDS011;40825;52.270;20.984;2023-07-08T04:40:51;10.20;;;7.10;;
54923;SDS011;40825;52.270;20.984;2023-07-08T04:43:18;10.50;;;5.60;;
54923;SDS011;40825;52.270;20.984;2023-07-08T04:45:49;10.40;;;5.80;;
54923;SDS011;40825;52.270;20.984;2023-07-08T04:48:18;10.80;;;5.80;;
54923;SDS011;40825;52.270;20.984;2023-07-08T04:50:47;11.00;;;5.70;;
54923;SDS011;40825;52.270;20.984;2023-07-08T04:53:14;10.10;;;5.60;;
54923;SDS011;40825;52.270;20.984;2023-07-08T04:55:44;9.00;;;6.50;;
54923;SDS011;40825;52.270;20.984;2023-07-08T04:58:13;10.30;;;6.40;;
54923;SDS011;40825;52.270;20.984;2023-07-08T05:00:39;9.90;;;5.80;;
54923;SDS011;40825;52.270;20.984;2023-07-08T05:03:04;10.30;;;6.30;;
54923;SDS011;40825;52.270;20.984;2023-07-08T05:05:30;11.20;;;5.50;;
54923;SDS011;40825;52.270;20.984;2023-07-08T05:07:56;9.40;;;6.30;;
54923;SDS011;40825;52.270;20.984;2023-07-08T05:10:21;11.50;;;5.80;;
54923;SDS011;40825;52.270;20.984;2023-07-08T05:12:47;7.80;;;5.40;;
54923;SDS011;40825;52.270;20.984;2023-07-08T05:15:13;9.60;;;6.10;;
54923;SDS011;40825;52.270;20.984;2023-07-08T05:17:39;9.20;;;4.60;;
54923;SDS011;40825;52.270;20.984;2023-07-08T05:20:06;7.60;;;4.90;;
54923;SDS011;40825;52.270;20.984;2023-07-08T05:22:33;8.60;;;5.10;;
54923;SDS011;40825;52.270;20.984;2023-07-08T05:24:59;9.20;;;5.40;;
54923;SDS011;40825;52.270;20.984;2023-07-08T05:27:25;8.90;;;5.10;;
54923;SDS011;40825;52.270;20.984;2023-07-08T05:29:50;8.80;;;4.20;;
54923;SDS011;40825;52.270;20.984;2023-07-08T05:32:16;10.90;;;3.80;;
54923;SDS011;40825;52.270;20.984;2023-07-08T05:34:43;7.10;;;3.50;;
54923;SDS011;40825;52.270;20.984;2023-07-08T05:37:09;5.50;;;3.00;;
54923;SDS011;40825;52.270;20.984;2023-07-08T05:39:35;5.10;;;2.50;;
54923;SDS011;40825;52.270;20.984;2023-07-08T05:42:01;6.50;;;3.00;;
54923;SDS011;40825;52.270;20.984;2023-07-08T05:44:27;8.10;;;3.10;;
54923;SDS011;40825;52.270;20.984;2023-07-08T05:46:52;8.20;;;2.80;;
54923;SDS011;40825;52.270;20.984;2023-07-08T05:49:18;4.30;;;2.60;;
54923;SDS011;40825;52.270;20.984;2023-07-08T05:51:44;4.70;;;2.00;;
54923;SDS011;40825;52.270;20.984;2023-07-08T05:54:10;5.90;;;3.10;;
54923;SDS011;40825;52.270;20.984;2023-07-08T05:56:36;4.10;;;2.00;;
54923;SDS011;40825;52.270;20.984;2023-07-08T05:59:01;6.90;;;2.90;;
54923;SDS011;40825;52.270;20.984;2023-07-08T06:01:28;4.70;;;2.80;;
54923;SDS011;40825;52.270;20.984;2023-07-08T06:03:53;6.10;;;2.40;;
54923;SDS011;40825;52.270;20.984;2023-07-08T06:06:23;5.40;;;2.60;;
54923;SDS011;40825;52.270;20.984;2023-07-08T06:08:49;5.90;;;2.00;;
54923;SDS011;40825;52.270;20.984;2023-07-08T06:11:15;4.80;;;2.40;;
54923;SDS011;40825;52.270;20.984;2023-07-08T06:13:41;3.40;;;2.40;;
54923;SDS011;40825;52.270;20.984;2023-07-08T06:16:06;4.20;;;2.20;;
54923;SDS011;40825;52.270;20.984;2023-07-08T06:18:32;4.40;;;2.10;;
54923;SDS011;40825;52.270;20.984;2023-07-08T06:20:58;5.10;;;2.40;;
54923;SDS011;40825;52.270;20.984;2023-07-08T06:23:24;4.50;;;2.40;;
54923;SDS011;40825;52.270;20.984;2023-07-08T06:25:50;6.80;;;2.20;;
54923;SDS011;40825;52.270;20.984;2023-07-08T06:28:16;4.40;;;2.00;;
54923;SDS011;40825;52.270;20.984;2023-07-08T06:30:42;5.60;;;2.10;;
54923;SDS011;40825;52.270;20.984;2023-07-08T06:33:07;5.90;;;1.90;;
54923;SDS011;40825;52.270;20.984;2023-07-08T06:35:33;4.10;;;1.70;;
54923;SDS011;40825;52.270;20.984;2023-07-08T06:37:58;4.80;;;2.20;;
54923;SDS011;40825;52.270;20.984;2023-07-08T06:40:24;5.20;;;2.30;;
54923;SDS011;40825;52.270;20.984;2023-07-08T06:42:49;5.30;;;2.40;;
54923;SDS011;40825;52.270;20.984;2023-07-08T06:45:15;4.00;;;2.20;;
54923;SDS011;40825;52.270;20.984;2023-07-08T06:47:40;3.20;;;1.50;;
54923;SDS011;40825;52.270;20.984;2023-07-08T06:50:06;4.00;;;2.00;;
54923;SDS011;40825;52.270;20.984;2023-07-08T06:52:32;3.40;;;1.70;;
54923;SDS011;40825;52.270;20.984;2023-07-08T06:55:00;2.60;;;1.30;;
54923;SDS011;40825;52.270;20.984;2023-07-08T06:57:27;3.10;;;1.60;;
54923;SDS011;40825;52.270;20.984;2023-07-08T06:59:53;5.10;;;1.60;;
54923;SDS011;40825;52.270;20.984;2023-07-08T07:02:19;4.90;;;1.80;;
54923;SDS011;40825;52.270;20.984;2023-07-08T07:04:45;4.20;;;1.80;;
54923;SDS011;40825;52.270;20.984;2023-07-08T07:07:11;4.10;;;1.70;;
54923;SDS011;40825;52.270;20.984;2023-07-08T07:09:37;4.30;;;1.80;;
54923;SDS011;40825;52.270;20.984;2023-07-08T07:12:04;3.60;;;1.80;;
54923;SDS011;40825;52.270;20.984;2023-07-08T07:14:31;5.60;;;1.80;;
54923;SDS011;40825;52.270;20.984;2023-07-08T07:16:57;3.60;;;1.70;;
54923;SDS011;40825;52.270;20.984;2023-07-08T07:19:23;4.60;;;2.10;;
54923;SDS011;40825;52.270;20.984;2023-07-08T07:21:48;4.30;;;1.70;;
54923;SDS011;40825;52.270;20.984;2023-07-08T07:24:14;4.60;;;1.60;;
54923;SDS011;40825;52.270;20.984;2023-07-08T07:26:39;3.90;;;1.60;;
54923;SDS011;40825;52.270;20.984;2023-07-08T07:29:05;2.80;;;1.80;;
54923;SDS011;40825;52.270;20.984;2023-07-08T07:31:30;4.00;;;1.10;;
54923;SDS011;40825;52.270;20.984;2023-07-08T07:33:58;3.30;;;1.50;;
54923;SDS011;40825;52.270;20.984;2023-07-08T07:36:25;2.80;;;1.80;;
54923;SDS011;40825;52.270;20.984;2023-07-08T07:38:50;3.80;;;1.70;;
54923;SDS011;40825;52.270;20.984;2023-07-08T07:41:16;3.40;;;1.90;;
54923;SDS011;40825;52.270;20.984;2023-07-08T07:43:41;3.80;;;2.00;;
54923;SDS011;40825;52.270;20.984;2023-07-08T07:46:07;3.70;;;1.70;;
54923;SDS011;40825;52.270;20.984;2023-07-08T07:48:33;3.60;;;1.90;;
54923;SDS011;40825;52.270;20.984;2023-07-08T07:50:59;3.10;;;1.40;;
54923;SDS011;40825;52.270;20.984;2023-07-08T07:53:25;2.60;;;1.30;;
54923;SDS011;40825;52.270;20.984;2023-07-08T07:56:00;4.00;;;1.20;;
54923;SDS011;40825;52.270;20.984;2023-07-08T07:58:27;6.00;;;1.60;;
54923;SDS011;40825;52.270;20.984;2023-07-08T08:00:53;3.70;;;1.50;;
54923;SDS011;40825;52.270;20.984;2023-07-08T08:03:19;2.10;;;1.20;;
54923;SDS011;40825;52.270;20.984;2023-07-08T08:05:45;4.80;;;1.40;;
54923;SDS011;40825;52.270;20.984;2023-07-08T08:08:12;3.80;;;1.40;;
54923;SDS011;40825;52.270;20.984;2023-07-08T08:10:37;3.40;;;1.30;;
54923;SDS011;40825;52.270;20.984;2023-07-08T08:13:03;3.90;;;1.50;;
54923;SDS011;40825;52.270;20.984;2023-07-08T08:15:29;2.90;;;1.20;;
54923;SDS011;40825;52.270;20.984;2023-07-08T08:17:55;2.80;;;1.60;;
54923;SDS011;40825;52.270;20.984;2023-07-08T08:20:22;4.10;;;1.90;;
54923;SDS011;40825;52.270;20.984;2023-07-08T08:22:49;3.60;;;1.80;;
54923;SDS011;40825;52.270;20.984;2023-07-08T08:25:17;3.20;;;1.70;;
54923;SDS011;40825;52.270;20.984;2023-07-08T08:27:44;4.00;;;1.90;;
54923;SDS011;40825;52.270;20.984;2023-07-08T08:30:10;3.20;;;1.20;;
54923;SDS011;40825;52.270;20.984;2023-07-08T08:32:36;5.80;;;1.80;;
54923;SDS011;40825;52.270;20.984;2023-07-08T08:35:02;2.90;;;1.50;;
54923;SDS011;40825;52.270;20.984;2023-07-08T08:37:28;3.40;;;1.80;;
54923;SDS011;40825;52.270;20.984;2023-07-08T08:39:53;4.50;;;2.70;;
54923;SDS011;40825;52.270;20.984;2023-07-08T08:44:49;3.30;;;1.40;;
54923;SDS011;40825;52.270;20.984;2023-07-08T08:47:48;3.10;;;1.40;;
54923;SDS011;40825;52.270;20.984;2023-07-08T08:52:59;3.80;;;1.60;;
54923;SDS011;40825;52.270;20.984;2023-07-08T08:55:28;3.80;;;1.80;;
54923;SDS011;40825;52.270;20.984;2023-07-08T09:00:56;4.30;;;1.60;;
54923;SDS011;40825;52.270;20.984;2023-07-08T09:06:10;4.20;;;1.80;;
54923;SDS011;40825;52.270;20.984;2023-07-08T09:08:41;3.30;;;1.90;;
54923;SDS011;40825;52.270;20.984;2023-07-08T09:13:51;4.00;;;1.40;;
54923;SDS011;40825;52.270;20.984;2023-07-08T09:19:08;3.20;;;1.80;;
54923;SDS011;40825;52.270;20.984;2023-07-08T09:21:44;2.40;;;1.40;;
54923;SDS011;40825;52.270;20.984;2023-07-08T09:24:22;3.50;;;1.60;;
54923;SDS011;40825;52.270;20.984;2023-07-08T09:26:53;5.10;;;1.50;;
54923;SDS011;40825;52.270;20.984;2023-07-08T09:29:22;3.50;;;1.50;;
54923;SDS011;40825;52.270;20.984;2023-07-08T09:31:48;3.50;;;1.70;;
54923;SDS011;40825;52.270;20.984;2023-07-08T09:34:21;3.70;;;1.50;;
54923;SDS011;40825;52.270;20.984;2023-07-08T09:36:49;7.50;;;4.80;;
54923;SDS011;40825;52.270;20.984;2023-07-08T09:39:16;3.80;;;2.20;;
54923;SDS011;40825;52.270;20.984;2023-07-08T09:41:44;2.50;;;1.50;;
54923;SDS011;40825;52.270;20.984;2023-07-08T09:44:22;3.30;;;1.60;;
54923;SDS011;40825;52.270;20.984;2023-07-08T09:46:54;2.80;;;1.00;;
54923;SDS011;40825;52.270;20.984;2023-07-08T09:49:31;2.50;;;1.50;;
54923;SDS011;40825;52.270;20.984;2023-07-08T09:52:00;4.40;;;1.50;;
54923;SDS011;40825;52.270;20.984;2023-07-08T09:54:27;3.70;;;1.50;;
54923;SDS011;40825;52.270;20.984;2023-07-08T09:57:03;2.80;;;1.50;;
54923;SDS011;40825;52.270;20.984;2023-07-08T09:59:38;4.50;;;1.90;;
54923;SDS011;40825;52.270;20.984;2023-07-08T10:02:28;2.90;;;1.50;;
54923;SDS011;40825;52.270;20.984;2023-07-08T10:04:55;3.50;;;1.90;;
54923;SDS011;40825;52.270;20.984;2023-07-08T10:07:23;3.30;;;1.30;;
54923;SDS011;40825;52.270;20.984;2023-07-08T10:09:50;4.80;;;1.30;;
54923;SDS011;40825;52.270;20.984;2023-07-08T10:12:21;2.20;;;1.00;;
54923;SDS011;40825;52.270;20.984;2023-07-08T10:14:50;3.70;;;1.90;;
54923;SDS011;40825;52.270;20.984;2023-07-08T10:17:19;4.10;;;1.50;;
54923;SDS011;40825;52.270;20.984;2023-07-08T10:27:56;3.50;;;1.20;;
54923;SDS011;40825;52.270;20.984;2023-07-08T10:30:53;3.80;;;1.40;;
54923;SDS011;40825;52.270;20.984;2023-07-08T10:33:47;3.60;;;1.30;;
54923;SDS011;40825;52.270;20.984;2023-07-08T10:44:35;4.70;;;1.60;;
54923;SDS011;40825;52.270;20.984;2023-07-08T11:03:33;2.70;;;1.00;;
54923;SDS011;40825;52.270;20.984;2023-07-08T11:06:02;3.70;;;2.00;;
54923;SDS011;40825;52.270;20.984;2023-07-08T11:08:35;3.40;;;1.30;;
54923;SDS011;40825;52.270;20.984;2023-07-08T11:11:31;4.00;;;1.20;;
54923;SDS011;40825;52.270;20.984;2023-07-08T11:14:10;4.30;;;1.60;;
54923;SDS011;40825;52.270;20.984;2023-07-08T11:16:39;3.20;;;1.40;;
54923;SDS011;40825;52.270;20.984;2023-07-08T11:19:16;4.00;;;1.60;;
54923;SDS011;40825;52.270;20.984;2023-07-08T11:21:52;3.40;;;1.60;;
54923;SDS011;40825;52.270;20.984;2023-07-08T11:27:04;4.00;;;1.30;;
54923;SDS011;40825;52.270;20.984;2023-07-08T11:29:37;3.40;;;1.40;;
54923;SDS011;40825;52.270;20.984;2023-07-08T11:32:09;5.30;;;3.00;;
54923;SDS011;40825;52.270;20.984;2023-07-08T11:34:40;5.10;;;1.70;;
54923;SDS011;40825;52.270;20.984;2023-07-08T11:37:07;5.20;;;2.30;;
54923;SDS011;40825;52.270;20.984;2023-07-08T11:39:38;3.80;;;1.80;;
54923;SDS011;40825;52.270;20.984;2023-07-08T11:44:44;5.50;;;2.30;;
54923;SDS011;40825;52.270;20.984;2023-07-08T11:47:31;3.60;;;1.90;;
54923;SDS011;40825;52.270;20.984;2023-07-08T11:50:14;2.90;;;1.50;;
54923;SDS011;40825;52.270;20.984;2023-07-08T11:53:01;4.20;;;1.70;;
54923;SDS011;40825;52.270;20.984;2023-07-08T11:55:47;4.70;;;1.40;;
54923;SDS011;40825;52.270;20.984;2023-07-08T11:58:30;3.80;;;2.10;;
54923;SDS011;40825;52.270;20.984;2023-07-08T12:01:22;3.90;;;1.80;;
54923;SDS011;40825;52.270;20.984;2023-07-08T12:04:01;4.60;;;2.20;;
54923;SDS011;40825;52.270;20.984;2023-07-08T12:07:02;4.60;;;2.70;;
54923;SDS011;40825;52.270;20.984;2023-07-08T12:09:36;4.90;;;2.00;;
54923;SDS011;40825;52.270;20.984;2023-07-08T12:12:05;5.40;;;2.20;;
54923;SDS011;40825;52.270;20.984;2023-07-08T12:14:36;4.30;;;1.80;;
54923;SDS011;40825;52.270;20.984;2023-07-08T12:17:04;4.10;;;1.70;;
54923;SDS011;40825;52.270;20.984;2023-07-08T12:19:35;3.10;;;1.50;;
54923;SDS011;40825;52.270;20.984;2023-07-08T12:22:08;6.90;;;4.40;;
54923;SDS011;40825;52.270;20.984;2023-07-08T12:24:34;4.60;;;2.70;;
54923;SDS011;40825;52.270;20.984;2023-07-08T12:27:00;2.70;;;1.50;;
54923;SDS011;40825;52.270;20.984;2023-07-08T12:29:25;4.80;;;2.30;;
54923;SDS011;40825;52.270;20.984;2023-07-08T12:31:51;4.60;;;1.90;;
54923;SDS011;40825;52.270;20.984;2023-07-08T12:34:17;4.10;;;2.30;;
54923;SDS011;40825;52.270;20.984;2023-07-08T12:36:43;5.90;;;2.50;;
54923;SDS011;40825;52.270;20.984;2023-07-08T12:39:11;4.90;;;2.30;;
54923;SDS011;40825;52.270;20.984;2023-07-08T12:41:40;4.70;;;2.30;;
54923;SDS011;40825;52.270;20.984;2023-07-08T12:44:20;4.30;;;2.00;;
54923;SDS011;40825;52.270;20.984;2023-07-08T12:46:48;4.60;;;2.30;;
54923;SDS011;40825;52.270;20.984;2023-07-08T12:49:17;5.20;;;2.00;;
54923;SDS011;40825;52.270;20.984;2023-07-08T12:51:45;5.70;;;2.30;;
54923;SDS011;40825;52.270;20.984;2023-07-08T12:54:12;4.00;;;2.00;;
54923;SDS011;40825;52.270;20.984;2023-07-08T12:56:39;3.20;;;1.60;;
54923;SDS011;40825;52.270;20.984;2023-07-08T12:59:07;4.50;;;2.50;;
54923;SDS011;40825;52.270;20.984;2023-07-08T13:01:34;4.70;;;2.30;;
54923;SDS011;40825;52.270;20.984;2023-07-08T13:04:05;4.90;;;2.90;;
54923;SDS011;40825;52.270;20.984;2023-07-08T13:06:35;4.70;;;1.70;;
54923;SDS011;40825;52.270;20.984;2023-07-08T13:09:08;4.00;;;1.80;;
54923;SDS011;40825;52.270;20.984;2023-07-08T13:11:47;3.70;;;2.10;;
54923;SDS011;40825;52.270;20.984;2023-07-08T13:14:13;3.50;;;2.00;;
54923;SDS011;40825;52.270;20.984;2023-07-08T13:16:39;2.40;;;1.40;;
54923;SDS011;40825;52.270;20.984;2023-07-08T13:19:06;3.90;;;2.00;;
54923;SDS011;40825;52.270;20.984;2023-07-08T13:21:36;3.40;;;1.90;;
54923;SDS011;40825;52.270;20.984;2023-07-08T13:24:01;6.20;;;2.00;;
54923;SDS011;40825;52.270;20.984;2023-07-08T13:26:32;5.00;;;1.50;;
54923;SDS011;40825;52.270;20.984;2023-07-08T13:29:01;4.10;;;2.20;;
54923;SDS011;40825;52.270;20.984;2023-07-08T13:31:37;6.30;;;2.10;;
54923;SDS011;40825;52.270;20.984;2023-07-08T13:34:07;3.50;;;1.80;;
54923;SDS011;40825;52.270;20.984;2023-07-08T13:36:43;7.30;;;2.10;;
54923;SDS011;40825;52.270;20.984;2023-07-08T13:42:09;7.10;;;2.60;;
54923;SDS011;40825;52.270;20.984;2023-07-08T13:47:21;4.40;;;1.80;;
54923;SDS011;40825;52.270;20.984;2023-07-08T13:49:58;5.30;;;1.90;;
54923;SDS011;40825;52.270;20.984;2023-07-08T13:52:31;5.30;;;2.60;;
54923;SDS011;40825;52.270;20.984;2023-07-08T13:54:58;3.80;;;2.10;;
54923;SDS011;40825;52.270;20.984;2023-07-08T13:57:38;4.90;;;2.00;;
54923;SDS011;40825;52.270;20.984;2023-07-08T14:00:05;4.70;;;2.40;;
54923;SDS011;40825;52.270;20.984;2023-07-08T14:02:32;5.50;;;2.00;;
54923;SDS011;40825;52.270;20.984;2023-07-08T14:04:59;3.60;;;1.80;;
54923;SDS011;40825;52.270;20.984;2023-07-08T14:07:29;5.20;;;2.40;;
54923;SDS011;40825;52.270;20.984;2023-07-08T14:09:57;3.70;;;1.90;;
54923;SDS011;40825;52.270;20.984;2023-07-08T14:12:23;4.30;;;1.80;;
54923;SDS011;40825;52.270;20.984;2023-07-08T14:14:48;4.90;;;2.20;;
54923;SDS011;40825;52.270;20.984;2023-07-08T14:17:24;5.20;;;2.40;;
54923;SDS011;40825;52.270;20.984;2023-07-08T14:19:50;5.40;;;1.90;;
54923;SDS011;40825;52.270;20.984;2023-07-08T14:22:20;3.10;;;1.60;;
54923;SDS011;40825;52.270;20.984;2023-07-08T14:24:48;3.50;;;2.00;;
54923;SDS011;40825;52.270;20.984;2023-07-08T14:27:14;5.30;;;2.20;;
54923;SDS011;40825;52.270;20.984;2023-07-08T14:32:11;4.80;;;2.00;;
54923;SDS011;40825;52.270;20.984;2023-07-08T14:34:39;6.00;;;2.50;;
54923;SDS011;40825;52.270;20.984;2023-07-08T14:39:43;3.90;;;1.60;;
54923;SDS011;40825;52.270;20.984;2023-07-08T14:42:11;3.70;;;1.70;;
54923;SDS011;40825;52.270;20.984;2023-07-08T14:44:38;6.50;;;2.80;;
54923;SDS011;40825;52.270;20.984;2023-07-08T14:47:12;4.50;;;2.30;;
54923;SDS011;40825;52.270;20.984;2023-07-08T14:49:40;4.20;;;2.00;;
54923;SDS011;40825;52.270;20.984;2023-07-08T14:52:06;5.00;;;1.70;;
54923;SDS011;40825;52.270;20.984;2023-07-08T14:54:32;5.00;;;1.80;;
54923;SDS011;40825;52.270;20.984;2023-07-08T14:56:58;3.90;;;1.80;;
54923;SDS011;40825;52.270;20.984;2023-07-08T14:59:25;3.70;;;1.50;;
54923;SDS011;40825;52.270;20.984;2023-07-08T15:01:54;3.40;;;2.10;;
54923;SDS011;40825;52.270;20.984;2023-07-08T15:04:22;4.00;;;2.10;;
54923;SDS011;40825;52.270;20.984;2023-07-08T15:06:48;5.30;;;2.20;;
54923;SDS011;40825;52.270;20.984;2023-07-08T15:09:15;4.90;;;2.10;;
54923;SDS011;40825;52.270;20.984;2023-07-08T15:11:43;5.00;;;2.20;;
54923;SDS011;40825;52.270;20.984;2023-07-08T15:16:51;4.80;;;2.00;;
54923;SDS011;40825;52.270;20.984;2023-07-08T15:19:18;3.50;;;1.50;;
54923;SDS011;40825;52.270;20.984;2023-07-08T15:21:44;3.10;;;1.60;;
54923;SDS011;40825;52.270;20.984;2023-07-08T15:24:11;3.30;;;1.60;;
54923;SDS011;40825;52.270;20.984;2023-07-08T15:29:04;3.60;;;1.40;;
54923;SDS011;40825;52.270;20.984;2023-07-08T15:31:31;5.20;;;2.00;;
54923;SDS011;40825;52.270;20.984;2023-07-08T15:33:59;3.70;;;1.80;;
54923;SDS011;40825;52.270;20.984;2023-07-08T15:36:25;4.10;;;2.00;;
54923;SDS011;40825;52.270;20.984;2023-07-08T15:38:50;3.80;;;2.20;;
54923;SDS011;40825;52.270;20.984;2023-07-08T15:41:23;3.50;;;1.50;;
54923;SDS011;40825;52.270;20.984;2023-07-08T15:43:55;3.00;;;1.50;;
54923;SDS011;40825;52.270;20.984;2023-07-08T15:46:23;6.60;;;2.30;;
54923;SDS011;40825;52.270;20.984;2023-07-08T15:48:56;4.50;;;1.90;;
54923;SDS011;40825;52.270;20.984;2023-07-08T15:51:22;5.60;;;2.00;;
54923;SDS011;40825;52.270;20.984;2023-07-08T15:53:48;3.70;;;1.90;;
54923;SDS011;40825;52.270;20.984;2023-07-08T15:56:15;4.50;;;1.60;;